Time;durP1;ratioP1;P1;durP2;ratioP2;P2;SDS_P1;SDS_P2;PMS_P1;PMS_P2;Temp;Humidity;BMP_temperature;BMP_pressure;BME280_temperature;BME280_humidity;BME280_pressure;Samples;Min_cycle;Max_cycle;Signal;HPM_P1;HPM_P2
2022/05/13 00:01:07;;;;;;;0.08;0.08;;;;;;;16.10;51.33;101871.88;5134476;27;20066;-78
2022/05/13 00:03:34;;;;;;;0.10;0.10;;;;;;;16.02;51.71;101857.81;5135221;27;20031;-78
2022/05/13 00:06:00;;;;;;;0.05;0.05;;;;;;;16.08;52.32;101857.66;5129611;27;20053;-76
2022/05/13 00:08:27;;;;;;;1.00;1.00;;;;;;;16.10;52.15;101858.50;5133786;27;20049;-77
2022/05/13 00:10:54;;;;;;;1.17;1.17;;;;;;;16.14;51.91;101857.47;5132952;27;20035;-76
2022/05/13 00:13:21;;;;;;;0.00;0.00;;;;;;;16.12;51.95;101859.31;5134498;27;20023;-76
2022/05/13 00:15:48;;;;;;;0.10;0.10;;;;;;;16.11;52.51;101856.69;5134275;27;20031;-76
2022/05/13 00:18:16;;;;;;;0.00;0.00;;;;;;;16.12;52.28;101858.44;5133935;27;20035;-77
2022/05/13 00:20:42;;;;;;;0.00;0.00;;;;;;;16.09;51.66;101851.38;5122457;27;20030;-75
2022/05/13 00:23:08;;;;;;;0.00;0.00;;;;;;;16.03;52.84;101846.22;5135876;27;20035;-76
2022/05/13 00:25:36;;;;;;;0.10;0.10;;;;;;;15.97;53.11;101849.91;5126365;27;20035;-76
2022/05/13 00:28:05;;;;;;;0.00;0.00;;;;;;;15.95;53.97;101848.19;5124377;27;20036;-76
2022/05/13 00:30:36;;;;;;;0.20;0.20;;;;;;;15.93;53.58;101852.72;5070835;22;20426;-80
2022/05/13 00:33:02;;;;;;;0.10;0.10;;;;;;;15.94;53.75;101859.84;5036739;28;20236;-80
2022/05/13 00:35:29;;;;;;;0.00;0.00;;;;;;;15.96;53.89;101849.97;5035482;28;20022;-80
2022/05/13 00:37:55;;;;;;;0.00;0.00;;;;;;;15.99;53.77;101848.09;5031854;28;20451;-81
2022/05/13 00:40:22;;;;;;;0.00;0.00;;;;;;;15.97;53.96;101844.56;5037715;28;20029;-80
2022/05/13 00:42:50;;;;;;;0.00;0.00;;;;;;;15.99;54.53;101848.09;5043809;28;20025;-80
2022/05/13 00:45:17;;;;;;;0.10;0.10;;;;;;;16.05;54.27;101841.72;5045517;28;20055;-80
2022/05/13 00:47:45;;;;;;;0.00;0.00;;;;;;;15.97;55.16;101843.69;5035667;28;20037;-81
2022/05/13 00:50:14;;;;;;;0.52;0.52;;;;;;;16.01;54.34;101840.00;5036090;28;20033;-81
2022/05/13 00:52:44;;;;;;;0.00;0.00;;;;;;;16.04;54.62;101845.28;5032686;28;20041;-81
2022/05/13 00:55:15;;;;;;;0.00;0.00;;;;;;;16.03;55.52;101832.84;5036643;28;20040;-81
2022/05/13 00:57:41;;;;;;;0.00;0.00;;;;;;;16.04;54.90;101839.06;5039440;28;20125;-79
2022/05/13 01:00:12;;;;;;;2.33;1.50;;;;;;;16.10;54.79;101838.88;5039167;28;20025;-81
2022/05/13 01:02:43;;;;;;;0.00;0.00;;;;;;;15.99;56.04;101831.19;5035084;28;20403;-81
2022/05/13 01:05:11;;;;;;;0.10;0.10;;;;;;;15.98;56.33;101834.75;5036639;28;20137;-80
2022/05/13 01:07:39;;;;;;;0.30;0.30;;;;;;;15.96;56.57;101833.91;5044065;28;20041;-81
2022/05/13 01:10:08;;;;;;;0.00;0.00;;;;;;;16.00;55.96;101833.81;5032105;28;20025;-81
2022/05/13 01:12:37;;;;;;;0.00;0.00;;;;;;;15.97;56.36;101831.19;5038417;28;20029;-81
2022/05/13 01:15:11;;;;;;;1.38;1.27;;;;;;;16.02;57.61;101836.44;5046458;28;20032;-81
2022/05/13 01:18:15;;;;;;;0.20;0.20;;;;;;;15.91;58.10;101836.72;5040817;28;20033;-81
2022/05/13 01:20:30;;;;;;;0.00;0.00;;;;;;;15.85;58.76;101829.75;5034283;28;20514;-81
2022/05/13 01:23:00;;;;;;;0.00;0.00;;;;;;;15.99;57.86;101833.84;5040398;28;20092;-79
2022/05/13 01:25:29;;;;;;;0.00;0.00;;;;;;;15.94;57.74;101833.97;5046325;28;20025;-81
2022/05/13 01:28:04;;;;;;;0.10;0.10;;;;;;;15.98;58.50;101830.28;5036431;28;20108;-80
2022/05/13 01:30:31;;;;;;;0.05;0.05;;;;;;;16.01;58.10;101829.31;5039256;28;20027;-81
2022/05/13 01:32:57;;;;;;;0.05;0.05;;;;;;;16.07;58.40;101834.50;5035409;28;20052;-81
2022/05/13 01:35:24;;;;;;;0.10;0.10;;;;;;;16.10;58.80;101831.75;5035856;28;20029;-79
2022/05/13 01:37:51;;;;;;;0.10;0.10;;;;;;;16.10;58.46;101834.44;5036054;28;20384;-79
2022/05/13 01:40:17;;;;;;;0.10;0.10;;;;;;;16.11;58.51;101837.97;5037143;28;20039;-81
2022/05/13 01:42:43;;;;;;;0.38;0.38;;;;;;;16.06;58.04;101832.75;5033030;28;20102;-81
2022/05/13 01:45:11;;;;;;;0.10;0.10;;;;;;;16.14;58.86;101836.09;5033583;28;20037;-81
2022/05/13 01:47:38;;;;;;;1.27;1.20;;;;;;;16.17;58.04;101841.38;5033564;28;20083;-82
2022/05/13 01:50:05;;;;;;;0.40;0.40;;;;;;;16.16;58.49;101838.72;5031846;28;20036;-81
2022/05/13 01:52:32;;;;;;;0.00;0.00;;;;;;;16.15;58.18;101835.19;5030110;28;20038;-81
2022/05/13 01:54:58;;;;;;;0.45;0.45;;;;;;;16.16;58.40;101828.91;5033559;28;20137;-79
2022/05/13 01:57:24;;;;;;;0.63;0.63;;;;;;;16.23;58.20;101834.97;5031799;28;20027;-80
2022/05/13 01:59:51;;;;;;;0.00;0.00;;;;;;;16.14;58.00;101832.56;5032384;28;20038;-81
2022/05/13 02:02:17;;;;;;;0.10;0.10;;;;;;;16.15;58.18;101832.50;5040173;28;20382;-81
2022/05/13 02:04:43;;;;;;;0.10;0.10;;;;;;;16.18;57.85;101835.09;5035711;28;20057;-80
2022/05/13 02:07:09;;;;;;;0.40;0.40;;;;;;;16.20;57.96;101828.81;5035063;28;20080;-80
2022/05/13 02:09:35;;;;;;;0.25;0.25;;;;;;;16.23;57.58;101829.63;5035583;28;20045;-79
2022/05/13 02:12:01;;;;;;;0.10;0.10;;;;;;;16.27;57.48;101825.94;5043689;28;20025;-81
2022/05/13 02:14:28;;;;;;;0.00;0.00;;;;;;;16.26;57.57;101831.31;5040852;28;20530;-81
2022/05/13 02:16:56;;;;;;;0.03;0.03;;;;;;;16.31;57.47;101821.38;5036469;28;20034;-81
2022/05/13 02:19:23;;;;;;;0.10;0.10;;;;;;;16.36;57.14;101826.59;5040747;28;20037;-80
2022/05/13 02:21:49;;;;;;;1.45;1.35;;;;;;;16.42;56.66;101835.31;5053288;28;20453;-81
2022/05/13 02:24:15;;;;;;;0.00;0.00;;;;;;;16.31;56.56;101832.06;5039075;28;20029;-80
2022/05/13 02:26:41;;;;;;;0.70;0.55;;;;;;;16.31;56.33;101826.72;5043024;28;20028;-80
2022/05/13 02:29:07;;;;;;;0.10;0.10;;;;;;;16.18;56.31;101832.41;5042446;28;20040;-80
2022/05/13 02:31:34;;;;;;;0.03;0.03;;;;;;;16.28;55.79;101837.53;5031259;28;20560;-80
2022/05/13 02:34:00;;;;;;;0.10;0.10;;;;;;;16.25;55.38;101833.13;5031465;28;20041;-80
2022/05/13 02:36:27;;;;;;;0.10;0.10;;;;;;;16.24;55.26;101825.16;5032802;28;20033;-80
2022/05/13 02:38:54;;;;;;;0.00;0.00;;;;;;;16.09;55.12;101831.81;5041360;28;20033;-80
2022/05/13 02:41:20;;;;;;;0.13;0.10;;;;;;;16.23;55.08;101828.75;5041446;28;20368;-80
2022/05/13 02:43:50;;;;;;;1.65;1.35;;;;;;;16.13;54.48;101820.97;5033521;28;20037;-80
2022/05/13 02:46:21;;;;;;;0.20;0.20;;;;;;;16.12;54.75;101810.31;5048666;28;20040;-81
2022/05/13 02:48:47;;;;;;;0.08;0.08;;;;;;;16.04;54.76;101813.22;5035694;28;20021;-79
2022/05/13 02:51:15;;;;;;;3.30;1.33;;;;;;;16.09;54.67;101800.59;5036872;28;20361;-79
2022/05/13 02:53:42;;;;;;;0.10;0.10;;;;;;;16.08;54.30;101800.66;5039918;28;20041;-79
2022/05/13 02:56:08;;;;;;;0.00;0.00;;;;;;;16.08;54.47;101804.19;5040895;28;20029;-79
2022/05/13 02:58:36;;;;;;;10.23;1.45;;;;;;;16.08;54.54;101809.53;5040536;28;20040;-80
2022/05/13 03:01:05;;;;;;;0.00;0.00;;;;;;;16.06;54.40;101808.69;5034826;28;20048;-79
2022/05/13 03:03:31;;;;;;;0.05;0.05;;;;;;;16.01;54.37;101818.63;5041238;28;20041;-79
2022/05/13 03:05:59;;;;;;;0.52;0.52;;;;;;;16.00;54.22;101811.56;5042593;28;20030;-80
2022/05/13 03:08:25;;;;;;;0.00;0.00;;;;;;;15.96;54.22;101807.19;5046296;28;20390;-80
2022/05/13 03:10:52;;;;;;;0.20;0.20;;;;;;;15.95;53.92;101802.75;5042619;28;20568;-79
2022/05/13 03:13:19;;;;;;;0.20;0.20;;;;;;;15.95;53.94;101802.75;5035339;28;20475;-80
2022/05/13 03:15:46;;;;;;;0.20;0.20;;;;;;;15.88;54.00;101811.88;5035832;28;20025;-81
2022/05/13 03:18:13;;;;;;;0.00;0.00;;;;;;;15.87;53.91;101804.78;5042834;28;20052;-80
2022/05/13 03:20:39;;;;;;;0.00;0.00;;;;;;;15.82;53.81;101805.75;5037114;28;20033;-80
2022/05/13 03:23:05;;;;;;;1.50;1.40;;;;;;;15.81;53.81;101805.78;5041338;28;20053;-81
2022/05/13 03:25:32;;;;;;;0.13;0.13;;;;;;;15.83;53.86;101802.19;5040309;28;20033;-81
2022/05/13 03:27:58;;;;;;;0.00;0.00;;;;;;;15.67;54.15;101799.00;5042053;28;20038;-80
2022/05/13 03:30:26;;;;;;;0.10;0.10;;;;;;;15.69;54.17;101801.66;5050228;28;20033;-81
2022/05/13 03:32:54;;;;;;;0.10;0.10;;;;;;;15.77;53.99;101809.47;5040075;28;20083;-80
2022/05/13 03:35:21;;;;;;;0.00;0.00;;;;;;;15.64;54.40;101811.59;5041809;28;20056;-82
2022/05/13 03:37:48;;;;;;;0.00;0.00;;;;;;;15.63;54.01;101808.00;5043333;28;20103;-82
2022/05/13 03:40:16;;;;;;;0.00;0.00;;;;;;;15.73;53.99;101814.00;5041972;28;21446;-82
2022/05/13 03:42:42;;;;;;;0.10;0.10;;;;;;;15.76;53.77;101803.22;5050916;28;20033;-82
2022/05/13 03:45:11;;;;;;;0.40;0.40;;;;;;;15.72;54.09;101820.25;5042242;28;20044;-80
2022/05/13 03:47:37;;;;;;;0.20;0.20;;;;;;;15.66;54.29;101828.44;5038402;28;20028;-81
2022/05/13 03:50:04;;;;;;;0.00;0.00;;;;;;;15.68;54.13;101827.47;5038925;28;20030;-81
2022/05/13 03:52:30;;;;;;;0.00;0.00;;;;;;;15.58;54.79;101835.78;5038568;28;20037;-81
2022/05/13 03:54:57;;;;;;;0.00;0.00;;;;;;;15.57;55.00;101831.34;5045718;28;20506;-79
2022/05/13 03:57:23;;;;;;;0.00;0.00;;;;;;;15.56;54.80;101834.94;5041150;28;20061;-79
2022/05/13 03:59:49;;;;;;;0.00;0.00;;;;;;;15.57;54.96;101840.22;5037833;28;20030;-79
2022/05/13 04:02:16;;;;;;;0.00;0.00;;;;;;;15.55;55.47;101834.03;5040184;28;20037;-79
2022/05/13 04:10:14;;;;;;;0.00;0.00;;;;;;;15.77;55.14;101839.72;5038687;28;20583;-80
2022/05/13 04:18:12;;;;;;;0.00;0.00;;;;;;;15.75;54.96;101840.66;5038315;28;20029;-81
2022/05/13 04:20:39;;;;;;;0.00;0.00;;;;;;;15.74;55.30;101837.13;5037512;28;20034;-80
2022/05/13 04:23:05;;;;;;;0.00;0.00;;;;;;;15.70;55.40;101830.09;5036228;28;20029;-79
2022/05/13 04:25:32;;;;;;;0.00;0.00;;;;;;;15.68;55.41;101837.28;5030222;28;20061;-79
2022/05/13 04:27:58;;;;;;;0.30;0.30;;;;;;;15.71;55.25;101829.19;5031755;28;20044;-79
2022/05/13 04:30:24;;;;;;;0.08;0.08;;;;;;;15.76;55.41;101840.63;5036050;28;20025;-79
2022/05/13 04:32:50;;;;;;;0.00;0.00;;;;;;;15.72;55.20;101838.97;5035631;28;20064;-79
2022/05/13 04:35:17;;;;;;;2.63;1.45;;;;;;;15.69;55.76;101837.25;5035550;28;20037;-80
2022/05/13 04:37:44;;;;;;;0.70;0.68;;;;;;;15.71;55.94;101839.00;5036281;28;20033;-80
2022/05/13 04:40:11;;;;;;;0.00;0.00;;;;;;;15.64;55.93;101841.84;5038125;28;20642;-80
2022/05/13 04:42:53;;;;;;;0.00;0.00;;;;;;;15.65;55.38;101838.25;5032097;28;20036;-80
2022/05/13 04:45:25;;;;;;;0.10;0.10;;;;;;;15.69;56.40;101850.59;5041547;28;20373;-80
2022/05/13 04:48:26;;;;;;;0.00;0.00;;;;;;;15.64;56.49;101857.00;5034778;28;20029;-80
2022/05/13 04:50:39;;;;;;;0.00;0.00;;;;;;;15.65;57.24;101864.06;5035361;28;20037;-79
2022/05/13 04:53:07;;;;;;;0.00;0.00;;;;;;;15.72;57.22;101865.69;5038937;28;20034;-81
2022/05/13 04:55:34;;;;;;;0.00;0.00;;;;;;;15.73;57.45;101875.44;5047847;28;20025;-80
2022/05/13 04:58:00;;;;;;;0.63;0.63;;;;;;;15.83;57.76;101885.00;5036801;28;20439;-79
2022/05/13 05:00:27;;;;;;;0.00;0.00;;;;;;;15.94;58.29;101886.56;5028822;28;20112;-79
2022/05/13 05:02:54;;;;;;;0.00;0.00;;;;;;;15.93;58.03;101890.16;5031479;28;20040;-80
2022/05/13 05:05:20;;;;;;;0.10;0.10;;;;;;;15.99;57.47;101889.97;5037233;28;20106;-80
2022/05/13 05:07:47;;;;;;;0.00;0.00;;;;;;;16.04;57.99;101893.41;5040101;28;20033;-80
2022/05/13 05:10:13;;;;;;;1.45;1.35;;;;;;;15.95;58.29;101888.28;5040122;28;20029;-81
2022/05/13 05:12:39;;;;;;;0.15;0.15;;;;;;;16.13;58.07;101892.28;5042517;28;20039;-81
2022/05/13 05:15:07;;;;;;;1.00;1.00;;;;;;;16.17;57.70;101884.16;5036785;28;20088;-81
2022/05/13 05:17:33;;;;;;;0.00;0.00;;;;;;;16.19;57.07;101878.75;5036672;28;20400;-81
2022/05/13 05:20:00;;;;;;;0.00;0.00;;;;;;;16.24;56.39;101898.22;5036043;28;20538;-81
2022/05/13 05:22:26;;;;;;;0.00;0.00;;;;;;;16.22;56.15;101885.81;5033235;28;20143;-79
2022/05/13 05:24:52;;;;;;;0.03;0.03;;;;;;;16.33;55.74;101895.28;5032491;28;20487;-79
2022/05/13 05:27:19;;;;;;;0.10;0.10;;;;;;;16.23;55.29;101890.25;5036862;28;20037;-81
2022/05/13 05:29:46;;;;;;;0.00;0.00;;;;;;;16.38;54.77;101899.66;5036554;28;20029;-81
2022/05/13 05:32:12;;;;;;;0.00;0.00;;;;;;;16.42;54.57;101894.16;5034272;28;20053;-81
2022/05/13 05:34:39;;;;;;;0.00;0.00;;;;;;;16.40;54.49;101905.81;5030061;28;20037;-79
2022/05/13 05:37:05;;;;;;;0.00;0.00;;;;;;;16.48;54.46;101904.69;5033611;28;20083;-80
2022/05/13 05:39:31;;;;;;;0.00;0.00;;;;;;;16.73;54.28;101909.34;5036675;28;20177;-81
2022/05/13 05:41:57;;;;;;;0.03;0.03;;;;;;;16.63;54.04;101923.91;5033814;28;20041;-78
2022/05/13 05:44:24;;;;;;;0.00;0.00;;;;;;;16.71;53.30;101923.69;5042987;28;20041;-81
2022/05/13 05:46:50;;;;;;;0.00;0.00;;;;;;;16.66;53.46;101929.19;5029081;28;20017;-81
2022/05/13 05:49:16;;;;;;;0.00;0.00;;;;;;;16.84;53.18;101925.09;5031136;28;20040;-81
2022/05/13 05:51:42;;;;;;;0.00;0.00;;;;;;;16.85;52.09;101921.50;5031443;28;21590;-81
2022/05/13 05:57:16;;;;;;;0.32;0.32;;;;;;;17.06;51.04;101924.50;5030728;28;20041;-80
2022/05/13 05:59:44;;;;;;;0.00;0.00;;;;;;;17.00;51.41;101933.59;5040288;28;20026;-79
2022/05/13 06:02:12;;;;;;;0.20;0.20;;;;;;;17.04;50.88;101934.38;5020979;28;20414;-80
2022/05/13 06:04:39;;;;;;;0.30;0.30;;;;;;;17.25;50.90;101932.88;5022408;28;20739;-80
2022/05/13 06:07:09;;;;;;;0.00;0.00;;;;;;;17.19;50.27;101938.41;5029214;28;20092;-79
2022/05/13 06:09:36;;;;;;;0.00;0.00;;;;;;;17.23;50.31;101940.06;5032498;28;20061;-80
2022/05/13 06:12:05;;;;;;;0.10;0.10;;;;;;;17.20;50.48;101943.72;5029729;28;20030;-80
2022/05/13 06:14:31;;;;;;;0.03;0.03;;;;;;;17.19;50.51;101938.41;5028190;28;20025;-81
2022/05/13 06:16:57;;;;;;;0.00;0.00;;;;;;;17.15;50.19;101953.69;5035322;28;20116;-79
2022/05/13 06:19:24;;;;;;;0.00;0.00;;;;;;;17.08;49.15;101969.03;5035979;28;20481;-81
2022/05/13 06:21:51;;;;;;;0.00;0.00;;;;;;;17.03;49.26;101952.22;5034696;28;20022;-79
2022/05/13 06:24:18;;;;;;;0.10;0.10;;;;;;;17.07;49.05;101951.25;5028471;28;20403;-81
2022/05/13 06:26:48;;;;;;;0.00;0.00;;;;;;;17.12;49.29;101959.13;5038682;28;20053;-81
2022/05/13 06:29:15;;;;;;;0.03;0.03;;;;;;;16.95;49.71;101962.31;5036851;28;20109;-79
2022/05/13 06:31:42;;;;;;;0.00;0.00;;;;;;;16.94;49.07;101960.53;5075474;22;20045;-84
2022/05/13 06:34:09;;;;;;;0.10;0.10;;;;;;;16.75;49.19;101949.47;5056333;28;20055;-87
2022/05/13 06:36:35;;;;;;;0.70;0.60;;;;;;;16.95;49.45;101954.28;5055773;28;20037;-86
2022/05/13 06:39:04;;;;;;;0.00;0.00;;;;;;;16.84;49.75;101948.31;5056416;28;20454;-86
2022/05/13 06:41:31;;;;;;;0.00;0.00;;;;;;;16.81;49.58;101947.47;5054967;28;20055;-86
2022/05/13 06:43:57;;;;;;;0.10;0.10;;;;;;;16.85;49.64;101966.13;5056390;28;20021;-86
2022/05/13 06:46:23;;;;;;;0.00;0.00;;;;;;;16.85;49.66;101945.59;5056449;28;20040;-86
2022/05/13 06:48:50;;;;;;;0.00;0.00;;;;;;;16.67;49.24;101963.03;5056344;28;20392;-86
2022/05/13 06:51:17;;;;;;;4.65;1.65;;;;;;;16.87;49.32;101961.59;5053220;28;20412;-86
2022/05/13 06:53:43;;;;;;;0.00;0.00;;;;;;;16.96;49.30;101969.44;5055637;28;20132;-86
2022/05/13 06:56:09;;;;;;;0.55;0.32;;;;;;;17.09;48.94;101969.94;5056337;28;20104;-87
2022/05/13 06:58:36;;;;;;;0.10;0.10;;;;;;;17.17;49.17;101967.03;5055508;28;20380;-86
2022/05/13 07:01:02;;;;;;;0.10;0.10;;;;;;;17.12;48.51;101973.41;5055054;28;20048;-87
2022/05/13 07:03:28;;;;;;;0.32;0.32;;;;;;;17.18;48.24;101979.50;5056048;28;20118;-86
2022/05/13 07:05:54;;;;;;;0.00;0.00;;;;;;;17.34;48.50;101972.75;5056279;28;20059;-87
2022/05/13 07:08:21;;;;;;;0.08;0.08;;;;;;;17.52;48.54;101978.47;5054390;28;20072;-88
2022/05/13 07:10:47;;;;;;;0.05;0.05;;;;;;;17.43;48.25;101984.97;5056309;28;20070;-90
2022/05/13 07:13:16;;;;;;;0.00;0.00;;;;;;;17.42;47.41;101975.19;5038334;28;20116;-89
2022/05/13 07:15:46;;;;;;;0.00;0.00;;;;;;;17.39;48.10;101988.69;5037156;28;20030;-89
2022/05/13 07:18:14;;;;;;;0.00;0.00;;;;;;;17.50;47.65;101988.38;5037120;28;20439;-88
2022/05/13 07:20:40;;;;;;;0.03;0.03;;;;;;;17.74;47.02;101994.75;5035971;28;20029;-87
2022/05/13 07:23:07;;;;;;;0.10;0.10;;;;;;;17.68;47.04;101990.44;5046189;28;20042;-89
2022/05/13 07:25:33;;;;;;;0.10;0.10;;;;;;;17.62;46.26;101996.03;5055701;28;20052;-88
2022/05/13 07:28:02;;;;;;;0.00;0.00;;;;;;;17.74;46.16;102006.34;5053517;28;20106;-88
2022/05/13 07:30:28;;;;;;;0.05;0.05;;;;;;;17.68;46.01;101998.50;5051514;28;20115;-88
2022/05/13 07:32:55;;;;;;;0.05;0.05;;;;;;;17.88;46.24;101994.31;5068622;28;20048;-88
2022/05/13 07:35:21;;;;;;;0.10;0.10;;;;;;;17.86;45.73;102012.25;5076293;28;20089;-88
2022/05/13 07:37:47;;;;;;;0.15;0.15;;;;;;;18.02;45.63;102007.28;5076174;28;20028;-89
2022/05/13 07:43:00;;;;;;;0.10;0.10;;;;;;;18.27;45.53;102007.38;5072823;28;20036;-88
2022/05/13 07:45:26;;;;;;;0.50;0.50;;;;;;;18.23;45.66;102016.44;5062167;28;20064;-88
2022/05/13 07:47:53;;;;;;;0.00;0.00;;;;;;;18.30;45.39;102004.56;5062071;28;20056;-88
2022/05/13 07:50:20;;;;;;;0.00;0.00;;;;;;;18.28;45.68;102009.13;5054760;28;20503;-89
2022/05/13 07:52:46;;;;;;;0.00;0.00;;;;;;;18.28;45.66;102025.22;5054401;28;20444;-89
2022/05/13 07:55:33;;;;;;;0.00;0.00;;;;;;;18.18;46.11;102016.59;5054968;28;20025;-87
2022/05/13 07:58:02;;;;;;;0.00;0.00;;;;;;;18.38;45.69;102023.09;5038443;28;20040;-89
2022/05/13 08:00:32;;;;;;;0.00;0.00;;;;;;;18.30;45.77;102034.06;5053310;28;20025;-89
2022/05/13 08:03:06;;;;;;;2.45;1.58;;;;;;;18.42;45.80;102016.69;5053779;28;20048;-90
2022/05/13 08:05:40;;;;;;;0.10;0.10;;;;;;;18.57;45.70;102017.97;5054565;28;20029;-90
2022/05/13 08:08:11;;;;;;;0.08;0.08;;;;;;;18.49;46.34;102017.34;5054615;28;20025;-89
2022/05/13 08:10:40;;;;;;;0.03;0.03;;;;;;;18.47;46.38;102027.25;5055238;28;20049;-89
2022/05/13 08:13:06;;;;;;;0.60;0.60;;;;;;;18.40;46.02;102034.66;5054950;28;20506;-89
2022/05/13 08:15:33;;;;;;;0.00;0.00;;;;;;;18.18;45.83;102023.75;5055801;28;20107;-89
2022/05/13 08:18:00;;;;;;;0.10;0.10;;;;;;;18.08;46.47;102037.47;5052943;28;20044;-88
2022/05/13 08:20:27;;;;;;;0.00;0.00;;;;;;;18.23;46.57;102029.84;5054298;28;20033;-89
2022/05/13 08:22:54;;;;;;;0.10;0.10;;;;;;;18.23;46.53;102022.69;5054868;28;20051;-90
2022/05/13 08:25:20;;;;;;;0.55;0.55;;;;;;;18.43;46.23;102032.75;5055075;28;20095;-89
2022/05/13 08:27:47;;;;;;;0.05;0.05;;;;;;;18.51;45.51;102012.81;5054202;28;20056;-89
2022/05/13 08:30:14;;;;;;;0.10;0.10;;;;;;;18.37;45.16;102038.31;5054303;28;20044;-89
2022/05/13 08:32:43;;;;;;;0.00;0.00;;;;;;;18.44;46.21;102038.97;5054704;28;20481;-89
2022/05/13 08:35:13;;;;;;;0.00;0.00;;;;;;;18.51;45.76;102028.94;5054518;28;20040;-90
2022/05/13 08:37:48;;;;;;;2.40;1.65;;;;;;;18.67;45.52;102024.78;5064249;28;20483;-89
2022/05/13 08:40:40;;;;;;;3.70;0.38;;;;;;;18.74;45.34;102037.06;5074963;28;20526;-83
2022/05/13 08:43:13;;;;;;;0.20;0.20;;;;;;;18.74;45.07;102036.16;5069948;28;20032;-88
2022/05/13 08:45:43;;;;;;;0.10;0.10;;;;;;;18.60;45.04;102042.00;5061374;28;20389;-88
2022/05/13 08:48:14;;;;;;;0.00;0.00;;;;;;;18.63;44.40;102041.94;5053807;28;20566;-88
2022/05/13 08:50:53;;;;;;;0.00;0.00;;;;;;;18.71;44.82;102039.81;5054301;28;20029;-87
2022/05/13 08:53:31;;;;;;;0.00;0.00;;;;;;;18.66;45.19;102065.97;5054219;28;20037;-88
2022/05/13 08:56:05;;;;;;;0.20;0.20;;;;;;;18.64;44.86;102043.69;5053016;28;20029;-87
2022/05/13 08:58:37;;;;;;;0.00;0.00;;;;;;;18.67;45.03;102056.97;5048693;28;20033;-80
2022/05/13 09:01:09;;;;;;;0.10;0.10;;;;;;;18.67;44.69;102056.97;5060071;28;21994;-88
2022/05/13 09:03:50;;;;;;;0.00;0.00;;;;;;;18.87;45.32;102055.41;5055299;28;20496;-90
2022/05/13 09:06:42;;;;;;;0.10;0.10;;;;;;;19.12;45.21;102060.81;5057971;28;20025;-87
2022/05/13 09:09:11;;;;;;;0.03;0.03;;;;;;;19.06;44.52;102061.03;5054301;28;20503;-88
2022/05/13 09:14:44;;;;;;;0.10;0.10;;;;;;;19.22;43.68;102069.41;5094874;27;1417552;-81
2022/05/13 09:20:10;;;;;;;1.55;1.27;;;;;;;18.93;44.55;102087.47;5115040;27;20388;-81
2022/05/13 09:22:43;;;;;;;0.00;0.00;;;;;;;18.98;45.04;102077.41;5109555;28;20024;-82
2022/05/13 09:25:34;;;;;;;0.28;0.28;;;;;;;19.05;44.57;102078.97;5118428;28;20122;-81
2022/05/13 09:28:10;;;;;;;0.10;0.10;;;;;;;19.07;44.71;102076.22;5120941;28;20035;-83
2022/05/13 09:30:42;;;;;;;0.65;0.65;;;;;;;19.14;45.25;102076.84;5120838;27;20028;-82
2022/05/13 09:36:01;;;;;;;0.10;0.10;;;;;;;19.12;43.71;102076.91;5102267;27;20203;-83
2022/05/13 09:38:32;;;;;;;0.08;0.08;;;;;;;19.37;43.84;102074.19;5095462;28;20032;-83
2022/05/13 09:41:06;;;;;;;0.10;0.10;;;;;;;19.45;43.27;102086.47;5092748;28;20061;-82
2022/05/13 09:43:43;;;;;;;0.10;0.10;;;;;;;19.60;43.58;102072.47;5100391;28;20035;-83
2022/05/13 09:48:59;;;;;;;0.30;0.30;;;;;;;19.79;43.50;102075.31;5081861;27;20394;-82
2022/05/13 09:51:37;;;;;;;9.30;1.77;;;;;;;19.83;42.82;102070.72;5087518;28;20509;-83
2022/05/13 09:54:25;;;;;;;0.90;0.90;;;;;;;20.04;41.78;102079.75;5084557;28;20057;-83
2022/05/13 09:57:04;;;;;;;0.30;0.30;;;;;;;20.00;43.33;102095.13;5040198;28;20032;-83
2022/05/13 09:59:36;;;;;;;0.00;0.00;;;;;;;19.89;42.06;102081.22;5040999;28;20029;-83
2022/05/13 10:02:22;;;;;;;;;;;;;;;19.96;40.88;102077.38;5051884;28;20061;-81
2022/05/13 10:04:51;;;;;;;0.00;0.00;;;;;;;19.96;41.50;102077.38;5040200;28;19920;-81
2022/05/13 10:07:20;;;;;;;0.03;0.03;;;;;;;19.81;41.54;102077.94;5040493;28;20121;-83
2022/05/13 10:15:36;;;;;;;0.00;0.00;;;;;;;19.83;40.99;102074.28;5041685;28;19916;-82
2022/05/13 10:20:49;;;;;;;0.40;0.40;;;;;;;19.92;40.76;102080.22;5116903;27;1197674;-82
2022/05/13 10:26:15;;;;;;;0.00;0.00;;;;;;;20.21;40.70;102076.34;5105887;27;1314730;-82
2022/05/13 10:29:05;;;;;;;0.00;0.00;;;;;;;20.47;41.20;102071.69;5143922;27;20031;-82
2022/05/13 10:31:38;;;;;;;2.42;2.22;;;;;;;20.46;40.33;102072.63;5139477;27;20027;-82
2022/05/13 10:34:29;;;;;;;0.00;0.00;;;;;;;20.61;39.61;102079.19;5123948;28;20028;-82
2022/05/13 10:37:07;;;;;;;0.00;0.00;;;;;;;20.52;39.93;102085.84;5134318;28;20034;-82
2022/05/13 10:42:18;;;;;;;0.00;0.00;;;;;;;20.51;39.66;102089.47;5136487;27;20604;-80
2022/05/13 10:45:07;;;;;;;0.00;0.00;;;;;;;20.67;40.04;102073.53;5122664;28;20138;-80
2022/05/13 10:48:12;;;;;;;0.00;0.00;;;;;;;20.74;40.39;102068.81;5117750;28;20031;-80
2022/05/13 10:51:18;;;;;;;0.35;0.35;;;;;;;20.62;39.36;102084.53;5116518;28;20028;-82
2022/05/13 10:54:13;;;;;;;0.10;0.10;;;;;;;20.63;39.45;102091.66;5112664;28;20038;-80
2022/05/13 10:59:52;;;;;;;0.05;0.05;;;;;;;20.48;39.02;102077.03;5117552;27;20385;-80
2022/05/13 11:05:32;;;;;;;0.00;0.00;;;;;;;20.53;39.35;102071.44;5092235;27;1190415;-80
2022/05/13 11:08:22;;;;;;;0.00;0.00;;;;;;;20.57;39.41;102067.66;5102797;28;20027;-80
2022/05/13 11:16:39;;;;;;;0.00;0.00;;;;;;;20.47;38.89;102059.16;5163187;27;20370;-80
2022/05/13 11:27:29;;;;;;;2.75;0.35;;;;;;;20.89;37.48;102068.13;5075660;28;20119;-82
2022/05/13 11:32:50;;;;;;;0.00;0.00;;;;;;;20.81;38.63;102078.34;5079896;28;20399;-81
2022/05/13 11:38:01;;;;;;;0.70;0.25;;;;;;;20.77;39.94;102076.75;5120766;27;20380;-80
2022/05/13 11:40:37;;;;;;;0.00;0.00;;;;;;;20.96;40.45;102066.94;5122837;28;20039;-81
2022/05/13 11:48:26;;;;;;;0.05;0.05;;;;;;;21.43;34.44;102083.69;5146490;27;20864;-80
2022/05/13 11:51:14;;;;;;;0.00;0.00;;;;;;;21.55;35.84;102066.94;5121557;28;20039;-81
2022/05/13 11:56:38;;;;;;;0.00;0.00;;;;;;;21.60;36.29;102067.63;5086008;27;20052;-80
2022/05/13 11:59:11;;;;;;;0.03;0.03;;;;;;;21.61;36.17;102064.00;5065806;28;20028;-81
2022/05/13 12:09:48;;;;;;;0.00;0.00;;;;;;;21.49;37.01;102056.44;5115989;27;20323;-81
2022/05/13 12:12:45;;;;;;;0.00;0.00;;;;;;;21.67;37.16;102068.25;5110029;28;20031;-81
2022/05/13 12:15:40;;;;;;;0.00;0.00;;;;;;;21.83;36.97;102073.75;5109643;27;20111;-83
2022/05/13 12:18:34;;;;;;;0.05;0.05;;;;;;;21.95;35.97;102078.56;5110612;27;20024;-82
2022/05/13 12:21:32;;;;;;;0.00;0.00;;;;;;;21.98;36.04;102078.44;5108692;28;20114;-82
2022/05/13 12:24:14;;;;;;;0.00;0.00;;;;;;;21.80;36.34;102079.31;5105267;28;20063;-80
2022/05/13 12:29:45;;;;;;;0.30;0.30;;;;;;;22.07;36.22;102085.19;5070284;28;20454;-78
2022/05/13 12:32:22;;;;;;;4.28;0.95;;;;;;;22.23;35.88;102082.63;5058854;23;20040;-81
2022/05/13 12:40:45;;;;;;;0.20;0.20;;;;;;;22.43;35.47;102086.16;5113307;27;20146;-82
2022/05/13 12:43:19;;;;;;;1.27;0.95;;;;;;;22.24;35.80;102080.78;5114159;28;20059;-82
2022/05/13 12:46:03;;;;;;;0.75;0.75;;;;;;;22.18;36.12;102076.59;5099740;28;20016;-82
2022/05/13 12:48:29;;;;;;;0.10;0.10;;;;;;;22.04;36.75;102076.38;5111641;28;20024;-82
2022/05/13 12:53:53;;;;;;;0.03;0.03;;;;;;;22.12;36.68;102087.69;5094217;28;20439;-84
2022/05/13 12:59:11;;;;;;;0.10;0.10;;;;;;;22.25;36.06;102082.53;5141685;27;20404;-82
2022/05/13 13:01:44;;;;;;;0.00;0.00;;;;;;;22.39;35.92;102076.47;5134646;27;20114;-82
2022/05/13 13:04:12;;;;;;;2.47;0.50;;;;;;;22.01;36.26;102092.69;5134247;28;20096;-82
2022/05/13 13:06:43;;;;;;;0.10;0.10;;;;;;;22.28;36.50;102083.25;5134116;28;20027;-82
2022/05/13 13:09:32;;;;;;;0.00;0.00;;;;;;;22.59;35.54;102088.97;5131862;28;20027;-82
2022/05/13 13:20:07;;;;;;;0.10;0.10;;;;;;;21.92;35.16;102089.50;5112602;27;20442;-82
2022/05/13 13:22:40;;;;;;;0.20;0.20;;;;;;;22.14;35.75;102080.34;5111489;28;20576;-82
2022/05/13 13:25:31;;;;;;;0.10;0.10;;;;;;;22.04;35.60;102089.88;5107720;28;20030;-82